Terminal Aerodrome Forecast
Issued by NWS

Home | Current Version | Previous Version | Text Only | Print | Product List | Glossary On
Versions: 1 2 3 4 5 6 7 8 9 10 11 12 13 14 15 16 17 18 19 20 21 22 23 24 25 26 27 28 29 30 31 32 33 34
000
FTUS44 KOUN 191729
TAFCSM
TAF
KCSM 191729Z 1918/2018 07005KT 4SM BR BKN005 OVC010
     FM192200 16006KT P6SM OVC015
     FM200900 21007KT 4SM BR BKN030
      TEMPO 2010/2014 2SM BR OVC015
     FM201500 20008KT 6SM BR BKN120=

USA.gov is the U.S. government's official web portal to all federal, state and local government web resources and services.